sensor_id;sensor_type;location;lat;lon;timestamp;temperature;humidity
51719;DHT22;37795;53.236;5.704;2023-03-14T00:02:10;9.70;73.00
51719;DHT22;37795;53.236;5.704;2023-03-14T00:04:36;9.70;73.20
51719;DHT22;37795;53.236;5.704;2023-03-14T00:07:02;9.60;73.30
51719;DHT22;37795;53.236;5.704;2023-03-14T00:09:28;9.60;73.50
51719;DHT22;37795;53.236;5.704;2023-03-14T00:11:55;9.60;73.60
51719;DHT22;37795;53.236;5.704;2023-03-14T00:14:21;9.60;73.80
51719;DHT22;37795;53.236;5.704;2023-03-14T00:16:47;9.50;74.10
51719;DHT22;37795;53.236;5.704;2023-03-14T00:19:13;9.50;74.40
51719;DHT22;37795;53.236;5.704;2023-03-14T00:21:38;9.40;74.70
51719;DHT22;37795;53.236;5.704;2023-03-14T00:24:04;9.40;74.70
51719;DHT22;37795;53.236;5.704;2023-03-14T00:26:31;9.40;74.70
51719;DHT22;37795;53.236;5.704;2023-03-14T00:28:56;9.30;75.00
51719;DHT22;37795;53.236;5.704;2023-03-14T00:31:22;9.20;75.10
51719;DHT22;37795;53.236;5.704;2023-03-14T00:33:48;9.20;75.20
51719;DHT22;37795;53.236;5.704;2023-03-14T00:36:17;9.20;75.50
51719;DHT22;37795;53.236;5.704;2023-03-14T00:38:44;9.10;75.70
51719;DHT22;37795;53.236;5.704;2023-03-14T00:41:13;9.10;75.70
51719;DHT22;37795;53.236;5.704;2023-03-14T00:43:39;9.00;75.90
51719;DHT22;37795;53.236;5.704;2023-03-14T00:46:05;9.00;75.90
51719;DHT22;37795;53.236;5.704;2023-03-14T00:48:31;9.00;76.00
51719;DHT22;37795;53.236;5.704;2023-03-14T00:50:57;9.00;75.80
51719;DHT22;37795;53.236;5.704;2023-03-14T00:53:23;9.10;75.90
51719;DHT22;37795;53.236;5.704;2023-03-14T00:55:49;9.10;75.90
51719;DHT22;37795;53.236;5.704;2023-03-14T00:58:17;9.00;76.10
51719;DHT22;37795;53.236;5.704;2023-03-14T01:00:44;9.00;76.30
51719;DHT22;37795;53.236;5.704;2023-03-14T01:03:10;9.10;76.40
51719;DHT22;37795;53.236;5.704;2023-03-14T01:05:36;9.00;76.70
51719;DHT22;37795;53.236;5.704;2023-03-14T01:08:03;9.00;76.80
51719;DHT22;37795;53.236;5.704;2023-03-14T01:10:29;9.00;76.90
51719;DHT22;37795;53.236;5.704;2023-03-14T01:12:55;9.00;76.90
51719;DHT22;37795;53.236;5.704;2023-03-14T01:15:21;9.00;77.20
51719;DHT22;37795;53.236;5.704;2023-03-14T01:17:47;8.90;77.40
51719;DHT22;37795;53.236;5.704;2023-03-14T01:20:14;8.90;78.00
51719;DHT22;37795;53.236;5.704;2023-03-14T01:22:41;8.80;78.40
51719;DHT22;37795;53.236;5.704;2023-03-14T01:25:12;8.80;78.60
51719;DHT22;37795;53.236;5.704;2023-03-14T01:27:38;8.80;78.90
51719;DHT22;37795;53.236;5.704;2023-03-14T01:30:04;8.80;79.10
51719;DHT22;37795;53.236;5.704;2023-03-14T01:32:30;8.80;79.40
51719;DHT22;37795;53.236;5.704;2023-03-14T01:34:56;8.80;79.30
51719;DHT22;37795;53.236;5.704;2023-03-14T01:37:22;8.80;79.40
51719;DHT22;37795;53.236;5.704;2023-03-14T01:39:47;8.70;79.70
51719;DHT22;37795;53.236;5.704;2023-03-14T01:42:14;8.70;79.90
51719;DHT22;37795;53.236;5.704;2023-03-14T01:44:55;8.70;79.90
51719;DHT22;37795;53.236;5.704;2023-03-14T01:47:22;8.70;79.90
51719;DHT22;37795;53.236;5.704;2023-03-14T01:49:58;8.70;80.00
51719;DHT22;37795;53.236;5.704;2023-03-14T01:52:31;8.70;80.10
51719;DHT22;37795;53.236;5.704;2023-03-14T01:55:20;8.60;80.20
51719;DHT22;37795;53.236;5.704;2023-03-14T01:57:58;8.60;80.30
51719;DHT22;37795;53.236;5.704;2023-03-14T02:00:25;8.60;80.50
51719;DHT22;37795;53.236;5.704;2023-03-14T02:02:57;8.60;80.70
51719;DHT22;37795;53.236;5.704;2023-03-14T02:05:26;8.60;81.00
51719;DHT22;37795;53.236;5.704;2023-03-14T02:07:58;8.50;81.20
51719;DHT22;37795;53.236;5.704;2023-03-14T02:10:28;8.50;81.80
51719;DHT22;37795;53.236;5.704;2023-03-14T02:12:56;8.50;82.40
51719;DHT22;37795;53.236;5.704;2023-03-14T02:15:22;8.40;82.80
51719;DHT22;37795;53.236;5.704;2023-03-14T02:17:48;8.40;82.80
51719;DHT22;37795;53.236;5.704;2023-03-14T02:20:25;8.40;82.50
51719;DHT22;37795;53.236;5.704;2023-03-14T02:22:53;8.40;82.80
51719;DHT22;37795;53.236;5.704;2023-03-14T02:27:50;8.40;82.80
51719;DHT22;37795;53.236;5.704;2023-03-14T02:30:22;8.40;82.80
51719;DHT22;37795;53.236;5.704;2023-03-14T02:32:52;8.40;83.10
51719;DHT22;37795;53.236;5.704;2023-03-14T02:35:23;8.30;83.70
51719;DHT22;37795;53.236;5.704;2023-03-14T02:37:55;8.30;84.10
51719;DHT22;37795;53.236;5.704;2023-03-14T02:40:22;8.20;84.60
51719;DHT22;37795;53.236;5.704;2023-03-14T02:42:47;8.20;84.90
51719;DHT22;37795;53.236;5.704;2023-03-14T02:47:59;8.20;84.80
51719;DHT22;37795;53.236;5.704;2023-03-14T02:50:29;8.20;84.90
51719;DHT22;37795;53.236;5.704;2023-03-14T02:52:56;8.20;84.90
51719;DHT22;37795;53.236;5.704;2023-03-14T02:55:23;8.20;85.10
51719;DHT22;37795;53.236;5.704;2023-03-14T02:57:49;8.20;85.30
51719;DHT22;37795;53.236;5.704;2023-03-14T03:00:15;8.20;85.40
51719;DHT22;37795;53.236;5.704;2023-03-14T03:02:41;8.20;85.40
51719;DHT22;37795;53.236;5.704;2023-03-14T03:05:07;8.20;85.40
51719;DHT22;37795;53.236;5.704;2023-03-14T03:07:33;8.20;85.60
51719;DHT22;37795;53.236;5.704;2023-03-14T03:09:59;8.20;85.70
51719;DHT22;37795;53.236;5.704;2023-03-14T03:12:24;8.20;85.70
51719;DHT22;37795;53.236;5.704;2023-03-14T03:14:50;8.20;85.40
51719;DHT22;37795;53.236;5.704;2023-03-14T03:17:16;8.20;85.50
51719;DHT22;37795;53.236;5.704;2023-03-14T03:19:42;8.30;85.10
51719;DHT22;37795;53.236;5.704;2023-03-14T03:22:08;8.30;84.90
51719;DHT22;37795;53.236;5.704;2023-03-14T03:24:34;8.30;84.70
51719;DHT22;37795;53.236;5.704;2023-03-14T03:27:00;8.30;84.70
51719;DHT22;37795;53.236;5.704;2023-03-14T03:29:25;8.30;84.60
51719;DHT22;37795;53.236;5.704;2023-03-14T03:31:51;8.30;84.50
51719;DHT22;37795;53.236;5.704;2023-03-14T03:34:17;8.40;84.40
51719;DHT22;37795;53.236;5.704;2023-03-14T03:36:43;8.30;84.30
51719;DHT22;37795;53.236;5.704;2023-03-14T03:39:08;8.40;84.20
51719;DHT22;37795;53.236;5.704;2023-03-14T03:41:34;8.40;83.90
51719;DHT22;37795;53.236;5.704;2023-03-14T03:44:00;8.40;83.90
51719;DHT22;37795;53.236;5.704;2023-03-14T03:46:25;8.40;83.60
51719;DHT22;37795;53.236;5.704;2023-03-14T03:48:58;8.50;83.50
51719;DHT22;37795;53.236;5.704;2023-03-14T03:51:25;8.40;83.40
51719;DHT22;37795;53.236;5.704;2023-03-14T03:53:51;8.40;83.50
51719;DHT22;37795;53.236;5.704;2023-03-14T03:56:17;8.40;83.50
51719;DHT22;37795;53.236;5.704;2023-03-14T03:58:43;8.40;83.30
51719;DHT22;37795;53.236;5.704;2023-03-14T04:01:09;8.40;83.50
51719;DHT22;37795;53.236;5.704;2023-03-14T04:03:36;8.40;83.60
51719;DHT22;37795;53.236;5.704;2023-03-14T04:06:11;8.40;83.50
51719;DHT22;37795;53.236;5.704;2023-03-14T04:08:37;8.30;83.80
51719;DHT22;37795;53.236;5.704;2023-03-14T04:11:03;8.30;83.90
51719;DHT22;37795;53.236;5.704;2023-03-14T04:13:29;8.30;84.50
51719;DHT22;37795;53.236;5.704;2023-03-14T04:15:55;8.20;85.00
51719;DHT22;37795;53.236;5.704;2023-03-14T04:18:21;8.20;85.20
51719;DHT22;37795;53.236;5.704;2023-03-14T04:20:54;8.20;85.50
51719;DHT22;37795;53.236;5.704;2023-03-14T04:23:20;8.10;86.00
51719;DHT22;37795;53.236;5.704;2023-03-14T04:25:47;8.10;86.30
51719;DHT22;37795;53.236;5.704;2023-03-14T04:28:12;8.10;86.50
51719;DHT22;37795;53.236;5.704;2023-03-14T04:30:38;8.00;87.10
51719;DHT22;37795;53.236;5.704;2023-03-14T04:33:03;8.00;87.40
51719;DHT22;37795;53.236;5.704;2023-03-14T04:35:33;7.90;87.70
51719;DHT22;37795;53.236;5.704;2023-03-14T04:37:59;7.90;88.00
51719;DHT22;37795;53.236;5.704;2023-03-14T04:40:25;7.90;88.10
51719;DHT22;37795;53.236;5.704;2023-03-14T04:42:51;7.90;88.20
51719;DHT22;37795;53.236;5.704;2023-03-14T04:45:16;7.90;88.30
51719;DHT22;37795;53.236;5.704;2023-03-14T04:47:43;7.90;88.30
51719;DHT22;37795;53.236;5.704;2023-03-14T04:50:09;7.90;88.40
51719;DHT22;37795;53.236;5.704;2023-03-14T04:52:35;7.90;88.40
51719;DHT22;37795;53.236;5.704;2023-03-14T04:55:01;7.80;88.60
51719;DHT22;37795;53.236;5.704;2023-03-14T04:57:27;7.90;88.60
51719;DHT22;37795;53.236;5.704;2023-03-14T04:59:52;7.90;88.70
51719;DHT22;37795;53.236;5.704;2023-03-14T05:02:18;7.80;88.80
51719;DHT22;37795;53.236;5.704;2023-03-14T05:04:44;7.80;88.70
51719;DHT22;37795;53.236;5.704;2023-03-14T05:07:10;7.80;88.90
51719;DHT22;37795;53.236;5.704;2023-03-14T05:09:35;7.80;88.80
51719;DHT22;37795;53.236;5.704;2023-03-14T05:12:01;7.80;88.90
51719;DHT22;37795;53.236;5.704;2023-03-14T05:14:27;7.80;88.90
51719;DHT22;37795;53.236;5.704;2023-03-14T05:16:52;7.80;89.00
51719;DHT22;37795;53.236;5.704;2023-03-14T05:19:18;7.80;88.90
51719;DHT22;37795;53.236;5.704;2023-03-14T05:21:44;7.80;89.00
51719;DHT22;37795;53.236;5.704;2023-03-14T05:24:10;7.80;89.10
51719;DHT22;37795;53.236;5.704;2023-03-14T05:26:35;7.80;89.10
51719;DHT22;37795;53.236;5.704;2023-03-14T05:29:01;7.90;88.80
51719;DHT22;37795;53.236;5.704;2023-03-14T05:31:27;7.90;88.20
51719;DHT22;37795;53.236;5.704;2023-03-14T05:33:53;7.80;87.50
51719;DHT22;37795;53.236;5.704;2023-03-14T05:36:18;8.00;86.60
51719;DHT22;37795;53.236;5.704;2023-03-14T05:38:44;8.00;86.10
51719;DHT22;37795;53.236;5.704;2023-03-14T05:41:10;8.00;85.80
51719;DHT22;37795;53.236;5.704;2023-03-14T05:43:35;8.10;85.10
51719;DHT22;37795;53.236;5.704;2023-03-14T05:46:01;8.10;84.50
51719;DHT22;37795;53.236;5.704;2023-03-14T05:48:27;8.10;83.80
51719;DHT22;37795;53.236;5.704;2023-03-14T05:50:56;8.10;83.40
51719;DHT22;37795;53.236;5.704;2023-03-14T05:53:23;8.00;82.70
51719;DHT22;37795;53.236;5.704;2023-03-14T05:55:54;8.00;81.60
51719;DHT22;37795;53.236;5.704;2023-03-14T05:58:20;8.00;81.00
51719;DHT22;37795;53.236;5.704;2023-03-14T06:00:46;7.90;80.40
51719;DHT22;37795;53.236;5.704;2023-03-14T06:03:12;7.80;79.70
51719;DHT22;37795;53.236;5.704;2023-03-14T06:05:37;7.70;79.30
51719;DHT22;37795;53.236;5.704;2023-03-14T06:08:03;7.60;78.90
51719;DHT22;37795;53.236;5.704;2023-03-14T06:10:29;7.50;78.10
51719;DHT22;37795;53.236;5.704;2023-03-14T06:12:55;7.40;78.20
51719;DHT22;37795;53.236;5.704;2023-03-14T06:15:21;7.40;77.90
51719;DHT22;37795;53.236;5.704;2023-03-14T06:17:46;7.30;77.60
51719;DHT22;37795;53.236;5.704;2023-03-14T06:20:12;7.20;77.50
51719;DHT22;37795;53.236;5.704;2023-03-14T06:22:38;7.10;77.50
51719;DHT22;37795;53.236;5.704;2023-03-14T06:25:06;7.10;77.40
51719;DHT22;37795;53.236;5.704;2023-03-14T06:27:32;6.90;76.50
51719;DHT22;37795;53.236;5.704;2023-03-14T06:29:58;6.90;77.00
51719;DHT22;37795;53.236;5.704;2023-03-14T06:32:24;6.90;77.00
51719;DHT22;37795;53.236;5.704;2023-03-14T06:34:50;6.80;77.00
51719;DHT22;37795;53.236;5.704;2023-03-14T06:37:15;6.80;77.20
51719;DHT22;37795;53.236;5.704;2023-03-14T06:39:41;6.70;77.00
51719;DHT22;37795;53.236;5.704;2023-03-14T06:42:09;6.70;77.50
51719;DHT22;37795;53.236;5.704;2023-03-14T06:44:35;6.70;77.50
51719;DHT22;37795;53.236;5.704;2023-03-14T06:47:00;6.80;77.80
51719;DHT22;37795;53.236;5.704;2023-03-14T06:49:26;6.90;77.30
51719;DHT22;37795;53.236;5.704;2023-03-14T06:59:48;7.40;74.90
51719;DHT22;37795;53.236;5.704;2023-03-14T07:02:14;6.80;75.90
51719;DHT22;37795;53.236;5.704;2023-03-14T07:04:40;6.50;76.50
51719;DHT22;37795;53.236;5.704;2023-03-14T07:07:06;6.50;76.80
51719;DHT22;37795;53.236;5.704;2023-03-14T07:09:32;6.30;76.40
51719;DHT22;37795;53.236;5.704;2023-03-14T07:11:58;6.40;76.90
51719;DHT22;37795;53.236;5.704;2023-03-14T07:14:24;6.40;77.00
51719;DHT22;37795;53.236;5.704;2023-03-14T07:16:50;6.40;76.70
51719;DHT22;37795;53.236;5.704;2023-03-14T07:19:15;6.50;76.80
51719;DHT22;37795;53.236;5.704;2023-03-14T07:21:41;6.40;76.30
51719;DHT22;37795;53.236;5.704;2023-03-14T07:24:07;6.40;76.80
51719;DHT22;37795;53.236;5.704;2023-03-14T07:26:33;6.40;76.30
51719;DHT22;37795;53.236;5.704;2023-03-14T07:28:59;6.20;75.40
51719;DHT22;37795;53.236;5.704;2023-03-14T07:31:24;6.20;76.30
51719;DHT22;37795;53.236;5.704;2023-03-14T07:33:50;6.10;76.00
51719;DHT22;37795;53.236;5.704;2023-03-14T07:36:17;6.20;76.80
51719;DHT22;37795;53.236;5.704;2023-03-14T07:38:42;6.30;77.00
51719;DHT22;37795;53.236;5.704;2023-03-14T07:41:08;6.30;77.00
51719;DHT22;37795;53.236;5.704;2023-03-14T07:43:34;6.40;76.90
51719;DHT22;37795;53.236;5.704;2023-03-14T07:46:00;6.40;77.00
51719;DHT22;37795;53.236;5.704;2023-03-14T07:48:26;6.60;76.90
51719;DHT22;37795;53.236;5.704;2023-03-14T07:50:53;6.60;76.20
51719;DHT22;37795;53.236;5.704;2023-03-14T07:53:19;6.70;75.90
51719;DHT22;37795;53.236;5.704;2023-03-14T07:55:45;6.70;75.60
51719;DHT22;37795;53.236;5.704;2023-03-14T07:58:12;6.70;75.90
51719;DHT22;37795;53.236;5.704;2023-03-14T08:00:37;6.70;75.60
51719;DHT22;37795;53.236;5.704;2023-03-14T08:03:03;6.70;75.50
51719;DHT22;37795;53.236;5.704;2023-03-14T08:05:29;6.80;75.30
51719;DHT22;37795;53.236;5.704;2023-03-14T08:07:55;6.80;75.20
51719;DHT22;37795;53.236;5.704;2023-03-14T08:10:21;6.80;74.80
51719;DHT22;37795;53.236;5.704;2023-03-14T08:12:52;6.80;74.90
51719;DHT22;37795;53.236;5.704;2023-03-14T08:15:19;6.80;75.10
51719;DHT22;37795;53.236;5.704;2023-03-14T08:17:45;6.90;74.60
51719;DHT22;37795;53.236;5.704;2023-03-14T08:20:11;7.00;74.90
51719;DHT22;37795;53.236;5.704;2023-03-14T08:22:38;7.00;75.00
51719;DHT22;37795;53.236;5.704;2023-03-14T08:25:05;7.00;75.00
51719;DHT22;37795;53.236;5.704;2023-03-14T08:27:31;7.00;74.20
51719;DHT22;37795;53.236;5.704;2023-03-14T08:29:57;7.10;74.60
51719;DHT22;37795;53.236;5.704;2023-03-14T08:32:23;7.10;73.50
51719;DHT22;37795;53.236;5.704;2023-03-14T08:34:49;7.00;72.70
51719;DHT22;37795;53.236;5.704;2023-03-14T08:37:15;7.00;72.60
51719;DHT22;37795;53.236;5.704;2023-03-14T08:39:40;7.00;72.70
51719;DHT22;37795;53.236;5.704;2023-03-14T08:42:06;7.10;72.70
51719;DHT22;37795;53.236;5.704;2023-03-14T08:44:32;7.20;72.70
51719;DHT22;37795;53.236;5.704;2023-03-14T08:46:57;7.20;72.40
51719;DHT22;37795;53.236;5.704;2023-03-14T08:49:23;7.10;71.60
51719;DHT22;37795;53.236;5.704;2023-03-14T08:51:49;7.20;72.20
51719;DHT22;37795;53.236;5.704;2023-03-14T08:54:15;7.10;71.20
51719;DHT22;37795;53.236;5.704;2023-03-14T08:56:40;7.00;71.20
51719;DHT22;37795;53.236;5.704;2023-03-14T08:59:06;7.00;71.80
51719;DHT22;37795;53.236;5.704;2023-03-14T09:01:33;7.00;71.90
51719;DHT22;37795;53.236;5.704;2023-03-14T09:03:59;7.10;71.70
51719;DHT22;37795;53.236;5.704;2023-03-14T09:06:25;7.10;71.90
51719;DHT22;37795;53.236;5.704;2023-03-14T09:08:50;7.20;72.00
51719;DHT22;37795;53.236;5.704;2023-03-14T09:11:16;7.30;71.90
51719;DHT22;37795;53.236;5.704;2023-03-14T09:13:43;7.30;69.80
51719;DHT22;37795;53.236;5.704;2023-03-14T09:16:09;7.30;69.50
51719;DHT22;37795;53.236;5.704;2023-03-14T09:18:35;7.30;69.00
51719;DHT22;37795;53.236;5.704;2023-03-14T09:21:00;7.30;68.40
51719;DHT22;37795;53.236;5.704;2023-03-14T09:23:27;7.30;67.50
51719;DHT22;37795;53.236;5.704;2023-03-14T09:25:56;7.30;67.50
51719;DHT22;37795;53.236;5.704;2023-03-14T09:28:23;7.30;67.00
51719;DHT22;37795;53.236;5.704;2023-03-14T09:30:48;7.40;67.00
51719;DHT22;37795;53.236;5.704;2023-03-14T09:33:15;7.50;67.20
51719;DHT22;37795;53.236;5.704;2023-03-14T09:35:41;7.50;66.60
51719;DHT22;37795;53.236;5.704;2023-03-14T09:38:07;7.50;66.60
51719;DHT22;37795;53.236;5.704;2023-03-14T09:40:36;7.60;66.10
51719;DHT22;37795;53.236;5.704;2023-03-14T09:43:03;7.60;65.10
51719;DHT22;37795;53.236;5.704;2023-03-14T09:45:32;7.70;64.30
51719;DHT22;37795;53.236;5.704;2023-03-14T09:47:59;7.70;64.40
51719;DHT22;37795;53.236;5.704;2023-03-14T09:50:30;7.90;63.90
51719;DHT22;37795;53.236;5.704;2023-03-14T09:53:02;8.00;64.10
51719;DHT22;37795;53.236;5.704;2023-03-14T09:55:28;8.10;63.00
51719;DHT22;37795;53.236;5.704;2023-03-14T09:58:00;8.10;62.20
51719;DHT22;37795;53.236;5.704;2023-03-14T10:00:29;8.20;61.90
51719;DHT22;37795;53.236;5.704;2023-03-14T10:02:56;8.40;62.30
51719;DHT22;37795;53.236;5.704;2023-03-14T10:05:26;8.50;61.60
51719;DHT22;37795;53.236;5.704;2023-03-14T10:07:53;8.30;60.70
51719;DHT22;37795;53.236;5.704;2023-03-14T10:10:20;8.10;61.20
51719;DHT22;37795;53.236;5.704;2023-03-14T10:12:54;7.90;60.80
51719;DHT22;37795;53.236;5.704;2023-03-14T10:15:31;7.80;61.00
51719;DHT22;37795;53.236;5.704;2023-03-14T10:17:59;7.90;60.60
51719;DHT22;37795;53.236;5.704;2023-03-14T10:23:04;8.20;59.80
51719;DHT22;37795;53.236;5.704;2023-03-14T10:25:41;8.40;58.30
51719;DHT22;37795;53.236;5.704;2023-03-14T10:28:11;8.50;58.70
51719;DHT22;37795;53.236;5.704;2023-03-14T10:30:47;8.70;58.50
51719;DHT22;37795;53.236;5.704;2023-03-14T10:33:26;8.40;59.20
51719;DHT22;37795;53.236;5.704;2023-03-14T10:35:55;8.20;59.70
51719;DHT22;37795;53.236;5.704;2023-03-14T10:38:23;8.00;59.30
51719;DHT22;37795;53.236;5.704;2023-03-14T10:40:51;8.00;59.70
51719;DHT22;37795;53.236;5.704;2023-03-14T10:43:22;8.30;58.90
51719;DHT22;37795;53.236;5.704;2023-03-14T10:46:02;8.30;57.70
51719;DHT22;37795;53.236;5.704;2023-03-14T10:48:36;8.40;58.30
51719;DHT22;37795;53.236;5.704;2023-03-14T10:57:20;8.60;54.90
51719;DHT22;37795;53.236;5.704;2023-03-14T10:59:46;8.70;56.40
51719;DHT22;37795;53.236;5.704;2023-03-14T11:02:34;8.70;56.50
51719;DHT22;37795;53.236;5.704;2023-03-14T11:07:46;9.00;57.10
51719;DHT22;37795;53.236;5.704;2023-03-14T11:21:13;9.20;56.10
51719;DHT22;37795;53.236;5.704;2023-03-14T11:29:33;9.20;56.30
51719;DHT22;37795;53.236;5.704;2023-03-14T11:32:07;8.90;57.70
51719;DHT22;37795;53.236;5.704;2023-03-14T11:34:56;8.60;58.30
51719;DHT22;37795;53.236;5.704;2023-03-14T11:37:34;8.50;58.20
51719;DHT22;37795;53.236;5.704;2023-03-14T11:40:14;8.50;59.10
51719;DHT22;37795;53.236;5.704;2023-03-14T11:42:43;8.70;58.60
51719;DHT22;37795;53.236;5.704;2023-03-14T11:45:32;8.80;58.80
51719;DHT22;37795;53.236;5.704;2023-03-14T11:48:11;8.80;59.20
51719;DHT22;37795;53.236;5.704;2023-03-14T11:50:39;8.60;58.30
51719;DHT22;37795;53.236;5.704;2023-03-14T11:53:19;8.70;58.60
51719;DHT22;37795;53.236;5.704;2023-03-14T11:55:47;8.80;58.30
51719;DHT22;37795;53.236;5.704;2023-03-14T11:58:29;8.70;56.20
51719;DHT22;37795;53.236;5.704;2023-03-14T12:00:57;8.60;56.30
51719;DHT22;37795;53.236;5.704;2023-03-14T12:08:59;8.50;58.40
51719;DHT22;37795;53.236;5.704;2023-03-14T12:13:52;8.60;55.70
51719;DHT22;37795;53.236;5.704;2023-03-14T12:18:47;8.80;55.40
51719;DHT22;37795;53.236;5.704;2023-03-14T12:21:13;8.80;55.20
51719;DHT22;37795;53.236;5.704;2023-03-14T12:28:43;9.30;56.50
51719;DHT22;37795;53.236;5.704;2023-03-14T12:48:11;9.00;55.10
51719;DHT22;37795;53.236;5.704;2023-03-14T12:50:53;9.30;56.20
51719;DHT22;37795;53.236;5.704;2023-03-14T12:56:28;9.50;54.10
51719;DHT22;37795;53.236;5.704;2023-03-14T13:01:53;9.50;55.70
51719;DHT22;37795;53.236;5.704;2023-03-14T13:04:19;9.50;54.10
51719;DHT22;37795;53.236;5.704;2023-03-14T13:06:54;9.60;54.60
51719;DHT22;37795;53.236;5.704;2023-03-14T13:12:19;9.60;56.00
51719;DHT22;37795;53.236;5.704;2023-03-14T13:14:49;9.80;55.90
51719;DHT22;37795;53.236;5.704;2023-03-14T13:17:24;9.90;55.70
51719;DHT22;37795;53.236;5.704;2023-03-14T13:19:57;10.00;55.20
51719;DHT22;37795;53.236;5.704;2023-03-14T13:22:28;9.60;57.00
51719;DHT22;37795;53.236;5.704;2023-03-14T13:25:03;9.50;55.70
51719;DHT22;37795;53.236;5.704;2023-03-14T13:27:31;9.70;54.90
51719;DHT22;37795;53.236;5.704;2023-03-14T13:29:58;9.70;55.60
51719;DHT22;37795;53.236;5.704;2023-03-14T13:32:28;9.80;54.90
51719;DHT22;37795;53.236;5.704;2023-03-14T13:34:57;9.90;55.10
51719;DHT22;37795;53.236;5.704;2023-03-14T13:37:25;10.00;55.30
51719;DHT22;37795;53.236;5.704;2023-03-14T13:39:57;9.60;56.50
51719;DHT22;37795;53.236;5.704;2023-03-14T13:42:28;9.60;57.60
51719;DHT22;37795;53.236;5.704;2023-03-14T13:44:56;9.30;56.80
51719;DHT22;37795;53.236;5.704;2023-03-14T13:47:24;9.60;57.60
51719;DHT22;37795;53.236;5.704;2023-03-14T13:49:51;9.70;55.30
51719;DHT22;37795;53.236;5.704;2023-03-14T13:52:23;9.90;56.90
51719;DHT22;37795;53.236;5.704;2023-03-14T13:54:53;9.90;55.40
51719;DHT22;37795;53.236;5.704;2023-03-14T13:57:19;9.90;56.90
51719;DHT22;37795;53.236;5.704;2023-03-14T14:00:02;9.70;54.90
51719;DHT22;37795;53.236;5.704;2023-03-14T14:02:33;9.80;53.80
51719;DHT22;37795;53.236;5.704;2023-03-14T14:05:00;9.90;55.70
51719;DHT22;37795;53.236;5.704;2023-03-14T14:07:26;10.00;55.40
51719;DHT22;37795;53.236;5.704;2023-03-14T14:09:53;10.10;55.00
51719;DHT22;37795;53.236;5.704;2023-03-14T14:12:45;10.10;55.20
51719;DHT22;37795;53.236;5.704;2023-03-14T14:15:23;9.70;56.00
51719;DHT22;37795;53.236;5.704;2023-03-14T14:18:03;9.30;58.50
51719;DHT22;37795;53.236;5.704;2023-03-14T14:20:38;9.30;58.90
51719;DHT22;37795;53.236;5.704;2023-03-14T14:23:09;9.60;56.30
51719;DHT22;37795;53.236;5.704;2023-03-14T14:25:36;9.80;56.80
51719;DHT22;37795;53.236;5.704;2023-03-14T14:28:21;9.90;56.30
51719;DHT22;37795;53.236;5.704;2023-03-14T14:31:03;10.00;58.10
51719;DHT22;37795;53.236;5.704;2023-03-14T14:33:38;10.10;56.70
51719;DHT22;37795;53.236;5.704;2023-03-14T14:36:37;9.90;58.20
51719;DHT22;37795;53.236;5.704;2023-03-14T14:39:02;9.90;57.80
51719;DHT22;37795;53.236;5.704;2023-03-14T14:41:32;10.00;57.90
51719;DHT22;37795;53.236;5.704;2023-03-14T14:44:00;10.00;57.80
51719;DHT22;37795;53.236;5.704;2023-03-14T14:46:28;10.10;56.70
51719;DHT22;37795;53.236;5.704;2023-03-14T14:49:28;10.10;56.30
51719;DHT22;37795;53.236;5.704;2023-03-14T14:52:01;10.20;56.30
51719;DHT22;37795;53.236;5.704;2023-03-14T14:54:37;10.20;56.70
51719;DHT22;37795;53.236;5.704;2023-03-14T14:57:06;10.10;56.90
51719;DHT22;37795;53.236;5.704;2023-03-14T14:59:43;10.10;56.50
51719;DHT22;37795;53.236;5.704;2023-03-14T15:02:30;10.10;55.30
51719;DHT22;37795;53.236;5.704;2023-03-14T15:04:57;9.70;56.10
51719;DHT22;37795;53.236;5.704;2023-03-14T15:07:23;9.30;57.20
51719;DHT22;37795;53.236;5.704;2023-03-14T15:09:49;9.30;59.00
51719;DHT22;37795;53.236;5.704;2023-03-14T15:12:14;9.10;61.20
51719;DHT22;37795;53.236;5.704;2023-03-14T15:14:40;8.80;62.80
51719;DHT22;37795;53.236;5.704;2023-03-14T15:17:10;8.20;60.60
51719;DHT22;37795;53.236;5.704;2023-03-14T15:19:36;6.90;57.00
51719;DHT22;37795;53.236;5.704;2023-03-14T15:22:03;7.50;59.00
51719;DHT22;37795;53.236;5.704;2023-03-14T15:24:28;7.60;61.00
51719;DHT22;37795;53.236;5.704;2023-03-14T15:26:54;7.60;62.30
51719;DHT22;37795;53.236;5.704;2023-03-14T15:29:20;8.30;62.80
51719;DHT22;37795;53.236;5.704;2023-03-14T15:31:45;8.60;61.90
51719;DHT22;37795;53.236;5.704;2023-03-14T15:34:11;8.90;61.40
51719;DHT22;37795;53.236;5.704;2023-03-14T15:36:37;8.60;59.30
51719;DHT22;37795;53.236;5.704;2023-03-14T15:39:05;8.80;59.10
51719;DHT22;37795;53.236;5.704;2023-03-14T15:41:31;8.90;56.30
51719;DHT22;37795;53.236;5.704;2023-03-14T15:43:57;8.80;56.90
51719;DHT22;37795;53.236;5.704;2023-03-14T15:46:23;8.70;54.60
51719;DHT22;37795;53.236;5.704;2023-03-14T15:48:50;8.90;56.80
51719;DHT22;37795;53.236;5.704;2023-03-14T15:51:17;9.10;59.00
51719;DHT22;37795;53.236;5.704;2023-03-14T15:53:43;9.10;56.60
51719;DHT22;37795;53.236;5.704;2023-03-14T15:56:13;9.10;57.80
51719;DHT22;37795;53.236;5.704;2023-03-14T15:58:39;9.00;58.50
51719;DHT22;37795;53.236;5.704;2023-03-14T16:01:06;9.10;57.40
51719;DHT22;37795;53.236;5.704;2023-03-14T16:03:35;9.10;57.00
51719;DHT22;37795;53.236;5.704;2023-03-14T16:06:01;9.00;56.20
51719;DHT22;37795;53.236;5.704;2023-03-14T16:08:27;8.70;56.40
51719;DHT22;37795;53.236;5.704;2023-03-14T16:10:56;8.50;56.10
51719;DHT22;37795;53.236;5.704;2023-03-14T16:13:23;8.30;58.80
51719;DHT22;37795;53.236;5.704;2023-03-14T16:15:59;8.70;59.90
51719;DHT22;37795;53.236;5.704;2023-03-14T16:18:27;8.80;59.30
51719;DHT22;37795;53.236;5.704;2023-03-14T16:20:58;8.60;59.80
51719;DHT22;37795;53.236;5.704;2023-03-14T16:23:25;8.60;58.60
51719;DHT22;37795;53.236;5.704;2023-03-14T16:25:51;8.60;59.60
51719;DHT22;37795;53.236;5.704;2023-03-14T16:28:17;7.90;54.00
51719;DHT22;37795;53.236;5.704;2023-03-14T16:30:43;8.10;58.10
51719;DHT22;37795;53.236;5.704;2023-03-14T16:33:09;8.00;55.40
51719;DHT22;37795;53.236;5.704;2023-03-14T16:35:38;7.80;57.30
51719;DHT22;37795;53.236;5.704;2023-03-14T16:38:04;7.90;61.00
51719;DHT22;37795;53.236;5.704;2023-03-14T16:40:30;7.90;62.30
51719;DHT22;37795;53.236;5.704;2023-03-14T16:42:56;8.00;64.30
51719;DHT22;37795;53.236;5.704;2023-03-14T16:45:21;8.00;64.70
51719;DHT22;37795;53.236;5.704;2023-03-14T16:47:47;7.90;64.40
51719;DHT22;37795;53.236;5.704;2023-03-14T16:50:13;7.90;63.80
51719;DHT22;37795;53.236;5.704;2023-03-14T16:52:38;7.80;64.40
51719;DHT22;37795;53.236;5.704;2023-03-14T16:55:04;7.70;63.80
51719;DHT22;37795;53.236;5.704;2023-03-14T16:57:32;7.80;64.00
51719;DHT22;37795;53.236;5.704;2023-03-14T16:59:58;7.90;64.40
51719;DHT22;37795;53.236;5.704;2023-03-14T17:02:24;7.90;62.90
51719;DHT22;37795;53.236;5.704;2023-03-14T17:04:50;7.70;64.30
51719;DHT22;37795;53.236;5.704;2023-03-14T17:07:15;7.40;63.20
51719;DHT22;37795;53.236;5.704;2023-03-14T17:09:41;7.00;63.80
51719;DHT22;37795;53.236;5.704;2023-03-14T17:12:07;7.00;63.00
51719;DHT22;37795;53.236;5.704;2023-03-14T17:14:33;7.10;65.20